sensor_id;sensor_type;location;lat;lon;timestamp;P1;durP1;ratioP1;P2;durP2;ratioP2
43891;SDS011;29555;45.350;5.578;2023-03-01T00:01:02;20.02;;;13.85;;
43891;SDS011;29555;45.350;5.578;2023-03-01T00:03:29;20.42;;;13.93;;
43891;SDS011;29555;45.350;5.578;2023-03-01T00:05:55;36.88;;;17.75;;
43891;SDS011;29555;45.350;5.578;2023-03-01T00:08:20;32.13;;;16.48;;
43891;SDS011;29555;45.350;5.578;2023-03-01T00:10:45;27.80;;;16.27;;
43891;SDS011;29555;45.350;5.578;2023-03-01T00:13:11;31.92;;;16.83;;
43891;SDS011;29555;45.350;5.578;2023-03-01T00:15:40;26.90;;;15.05;;
43891;SDS011;29555;45.350;5.578;2023-03-01T00:18:06;23.20;;;14.68;;
43891;SDS011;29555;45.350;5.578;2023-03-01T00:20:33;25.58;;;15.48;;
43891;SDS011;29555;45.350;5.578;2023-03-01T00:22:58;28.92;;;16.58;;
43891;SDS011;29555;45.350;5.578;2023-03-01T00:25:24;24.50;;;16.17;;
43891;SDS011;29555;45.350;5.578;2023-03-01T00:27:49;27.50;;;16.02;;
43891;SDS011;29555;45.350;5.578;2023-03-01T00:30:14;29.60;;;16.45;;
43891;SDS011;29555;45.350;5.578;2023-03-01T00:32:40;32.25;;;16.15;;
43891;SDS011;29555;45.350;5.578;2023-03-01T00:35:06;24.27;;;16.20;;
43891;SDS011;29555;45.350;5.578;2023-03-01T00:37:31;24.35;;;16.42;;
43891;SDS011;29555;45.350;5.578;2023-03-01T00:39:56;27.45;;;15.38;;
43891;SDS011;29555;45.350;5.578;2023-03-01T00:42:22;33.45;;;17.83;;
43891;SDS011;29555;45.350;5.578;2023-03-01T00:44:48;30.33;;;16.00;;
43891;SDS011;29555;45.350;5.578;2023-03-01T00:47:13;25.80;;;15.98;;
43891;SDS011;29555;45.350;5.578;2023-03-01T00:49:39;32.42;;;17.20;;
43891;SDS011;29555;45.350;5.578;2023-03-01T00:52:04;30.65;;;16.80;;
43891;SDS011;29555;45.350;5.578;2023-03-01T00:54:30;32.35;;;16.02;;
43891;SDS011;29555;45.350;5.578;2023-03-01T00:56:58;25.40;;;16.20;;
43891;SDS011;29555;45.350;5.578;2023-03-01T00:59:23;22.10;;;15.18;;
43891;SDS011;29555;45.350;5.578;2023-03-01T01:01:49;28.85;;;17.48;;
43891;SDS011;29555;45.350;5.578;2023-03-01T01:04:14;24.05;;;14.50;;
43891;SDS011;29555;45.350;5.578;2023-03-01T01:06:41;23.23;;;14.88;;
43891;SDS011;29555;45.350;5.578;2023-03-01T01:09:08;25.75;;;16.27;;
43891;SDS011;29555;45.350;5.578;2023-03-01T01:11:42;31.17;;;17.08;;
43891;SDS011;29555;45.350;5.578;2023-03-01T01:14:08;29.85;;;19.42;;
43891;SDS011;29555;45.350;5.578;2023-03-01T01:16:33;28.73;;;17.30;;
43891;SDS011;29555;45.350;5.578;2023-03-01T01:18:58;26.25;;;16.02;;
43891;SDS011;29555;45.350;5.578;2023-03-01T01:21:24;26.33;;;14.57;;
43891;SDS011;29555;45.350;5.578;2023-03-01T01:23:51;24.85;;;16.30;;
43891;SDS011;29555;45.350;5.578;2023-03-01T01:26:18;30.17;;;17.17;;
43891;SDS011;29555;45.350;5.578;2023-03-01T01:28:48;29.45;;;15.90;;
43891;SDS011;29555;45.350;5.578;2023-03-01T01:31:14;27.33;;;16.38;;
43891;SDS011;29555;45.350;5.578;2023-03-01T01:33:39;25.27;;;16.40;;
43891;SDS011;29555;45.350;5.578;2023-03-01T01:36:06;26.30;;;16.90;;
43891;SDS011;29555;45.350;5.578;2023-03-01T01:38:33;29.67;;;17.50;;
43891;SDS011;29555;45.350;5.578;2023-03-01T01:40:58;21.08;;;14.90;;
43891;SDS011;29555;45.350;5.578;2023-03-01T01:43:26;25.33;;;18.20;;
43891;SDS011;29555;45.350;5.578;2023-03-01T01:45:59;29.73;;;17.23;;
43891;SDS011;29555;45.350;5.578;2023-03-01T01:48:53;25.73;;;15.70;;
43891;SDS011;29555;45.350;5.578;2023-03-01T01:51:25;25.30;;;16.27;;
43891;SDS011;29555;45.350;5.578;2023-03-01T01:53:58;29.80;;;16.25;;
43891;SDS011;29555;45.350;5.578;2023-03-01T01:56:25;21.30;;;15.23;;
43891;SDS011;29555;45.350;5.578;2023-03-01T01:58:52;29.00;;;16.58;;
43891;SDS011;29555;45.350;5.578;2023-03-01T02:01:18;28.08;;;17.30;;
43891;SDS011;29555;45.350;5.578;2023-03-01T02:03:44;22.92;;;15.80;;
43891;SDS011;29555;45.350;5.578;2023-03-01T02:06:19;28.50;;;16.08;;
43891;SDS011;29555;45.350;5.578;2023-03-01T02:08:54;30.92;;;17.67;;
43891;SDS011;29555;45.350;5.578;2023-03-01T02:11:22;28.00;;;16.45;;
43891;SDS011;29555;45.350;5.578;2023-03-01T02:13:48;29.20;;;17.27;;
43891;SDS011;29555;45.350;5.578;2023-03-01T02:16:14;36.80;;;20.67;;
43891;SDS011;29555;45.350;5.578;2023-03-01T02:18:40;33.28;;;19.48;;
43891;SDS011;29555;45.350;5.578;2023-03-01T02:23:42;31.90;;;18.60;;
43891;SDS011;29555;45.350;5.578;2023-03-01T02:26:15;29.92;;;19.17;;
43891;SDS011;29555;45.350;5.578;2023-03-01T02:29:06;26.23;;;15.52;;
43891;SDS011;29555;45.350;5.578;2023-03-01T02:31:32;29.70;;;15.88;;
43891;SDS011;29555;45.350;5.578;2023-03-01T02:34:07;29.13;;;15.60;;
43891;SDS011;29555;45.350;5.578;2023-03-01T02:36:48;34.03;;;19.73;;
43891;SDS011;29555;45.350;5.578;2023-03-01T02:39:18;28.70;;;16.92;;
43891;SDS011;29555;45.350;5.578;2023-03-01T02:41:48;25.98;;;18.20;;
43891;SDS011;29555;45.350;5.578;2023-03-01T02:44:16;32.60;;;17.88;;
43891;SDS011;29555;45.350;5.578;2023-03-01T02:46:52;27.85;;;16.48;;
43891;SDS011;29555;45.350;5.578;2023-03-01T02:59:52;25.90;;;14.73;;
43891;SDS011;29555;45.350;5.578;2023-03-01T03:05:00;33.38;;;17.30;;
43891;SDS011;29555;45.350;5.578;2023-03-01T03:07:36;26.17;;;16.30;;
43891;SDS011;29555;45.350;5.578;2023-03-01T03:10:05;28.02;;;16.50;;
43891;SDS011;29555;45.350;5.578;2023-03-01T03:12:33;33.70;;;17.70;;
43891;SDS011;29555;45.350;5.578;2023-03-01T03:14:58;28.92;;;16.67;;
43891;SDS011;29555;45.350;5.578;2023-03-01T03:17:24;30.25;;;18.17;;
43891;SDS011;29555;45.350;5.578;2023-03-01T03:19:49;29.10;;;18.88;;
43891;SDS011;29555;45.350;5.578;2023-03-01T03:22:15;29.48;;;17.73;;
43891;SDS011;29555;45.350;5.578;2023-03-01T03:24:40;34.33;;;19.02;;
43891;SDS011;29555;45.350;5.578;2023-03-01T03:27:06;29.50;;;19.00;;
43891;SDS011;29555;45.350;5.578;2023-03-01T03:29:32;34.58;;;19.52;;
43891;SDS011;29555;45.350;5.578;2023-03-01T03:31:58;24.45;;;16.73;;
43891;SDS011;29555;45.350;5.578;2023-03-01T03:34:23;21.95;;;15.90;;
43891;SDS011;29555;45.350;5.578;2023-03-01T03:36:55;27.90;;;19.35;;
43891;SDS011;29555;45.350;5.578;2023-03-01T03:39:24;31.02;;;17.88;;
43891;SDS011;29555;45.350;5.578;2023-03-01T03:41:50;35.17;;;17.70;;
43891;SDS011;29555;45.350;5.578;2023-03-01T03:44:15;34.53;;;18.20;;
43891;SDS011;29555;45.350;5.578;2023-03-01T03:46:41;30.08;;;17.10;;
43891;SDS011;29555;45.350;5.578;2023-03-01T03:49:06;28.75;;;18.55;;
43891;SDS011;29555;45.350;5.578;2023-03-01T03:51:31;29.08;;;18.75;;
43891;SDS011;29555;45.350;5.578;2023-03-01T03:53:57;31.33;;;15.55;;
43891;SDS011;29555;45.350;5.578;2023-03-01T03:56:22;25.90;;;16.67;;
43891;SDS011;29555;45.350;5.578;2023-03-01T03:58:51;23.95;;;17.02;;
43891;SDS011;29555;45.350;5.578;2023-03-01T04:01:17;29.90;;;18.58;;
43891;SDS011;29555;45.350;5.578;2023-03-01T04:03:42;31.38;;;17.25;;
43891;SDS011;29555;45.350;5.578;2023-03-01T04:06:11;32.45;;;18.25;;
43891;SDS011;29555;45.350;5.578;2023-03-01T04:08:37;27.10;;;15.95;;
43891;SDS011;29555;45.350;5.578;2023-03-01T04:11:03;25.60;;;16.88;;
43891;SDS011;29555;45.350;5.578;2023-03-01T04:13:49;33.08;;;17.67;;
43891;SDS011;29555;45.350;5.578;2023-03-01T04:16:16;29.15;;;17.20;;
43891;SDS011;29555;45.350;5.578;2023-03-01T04:18:42;33.70;;;18.52;;
43891;SDS011;29555;45.350;5.578;2023-03-01T04:21:08;38.33;;;19.90;;
43891;SDS011;29555;45.350;5.578;2023-03-01T04:23:34;26.70;;;17.55;;
43891;SDS011;29555;45.350;5.578;2023-03-01T04:26:00;29.30;;;17.23;;
43891;SDS011;29555;45.350;5.578;2023-03-01T04:28:35;28.10;;;18.48;;
43891;SDS011;29555;45.350;5.578;2023-03-01T04:31:04;26.60;;;18.17;;
43891;SDS011;29555;45.350;5.578;2023-03-01T04:33:38;32.10;;;17.77;;
43891;SDS011;29555;45.350;5.578;2023-03-01T04:36:04;27.67;;;17.90;;
43891;SDS011;29555;45.350;5.578;2023-03-01T04:38:31;28.13;;;19.08;;
43891;SDS011;29555;45.350;5.578;2023-03-01T04:40:57;28.33;;;17.92;;
43891;SDS011;29555;45.350;5.578;2023-03-01T04:43:22;33.50;;;18.00;;
43891;SDS011;29555;45.350;5.578;2023-03-01T04:45:47;30.20;;;17.98;;
43891;SDS011;29555;45.350;5.578;2023-03-01T04:48:13;33.33;;;19.95;;
43891;SDS011;29555;45.350;5.578;2023-03-01T04:50:38;28.33;;;16.60;;
43891;SDS011;29555;45.350;5.578;2023-03-01T04:53:04;29.70;;;19.70;;
43891;SDS011;29555;45.350;5.578;2023-03-01T04:55:29;28.17;;;18.75;;
43891;SDS011;29555;45.350;5.578;2023-03-01T04:57:55;34.38;;;19.05;;
43891;SDS011;29555;45.350;5.578;2023-03-01T05:00:21;34.78;;;17.92;;
43891;SDS011;29555;45.350;5.578;2023-03-01T05:02:51;35.92;;;17.05;;
43891;SDS011;29555;45.350;5.578;2023-03-01T05:05:28;35.53;;;20.83;;
43891;SDS011;29555;45.350;5.578;2023-03-01T05:07:56;28.52;;;18.80;;
43891;SDS011;29555;45.350;5.578;2023-03-01T05:10:25;31.73;;;17.45;;
43891;SDS011;29555;45.350;5.578;2023-03-01T05:12:51;32.70;;;18.75;;
43891;SDS011;29555;45.350;5.578;2023-03-01T05:15:18;29.50;;;19.30;;
43891;SDS011;29555;45.350;5.578;2023-03-01T05:17:43;29.25;;;17.85;;
43891;SDS011;29555;45.350;5.578;2023-03-01T05:20:09;40.20;;;19.30;;
43891;SDS011;29555;45.350;5.578;2023-03-01T05:22:35;33.17;;;19.23;;
43891;SDS011;29555;45.350;5.578;2023-03-01T05:25:02;30.67;;;18.15;;
43891;SDS011;29555;45.350;5.578;2023-03-01T05:27:27;32.83;;;18.38;;
43891;SDS011;29555;45.350;5.578;2023-03-01T05:29:54;29.67;;;18.08;;
43891;SDS011;29555;45.350;5.578;2023-03-01T05:32:20;32.75;;;17.88;;
43891;SDS011;29555;45.350;5.578;2023-03-01T05:34:45;19.77;;;13.40;;
43891;SDS011;29555;45.350;5.578;2023-03-01T05:37:11;32.40;;;17.75;;
43891;SDS011;29555;45.350;5.578;2023-03-01T05:39:38;34.97;;;20.20;;
43891;SDS011;29555;45.350;5.578;2023-03-01T05:42:03;32.05;;;19.27;;
43891;SDS011;29555;45.350;5.578;2023-03-01T05:44:29;30.00;;;18.30;;
43891;SDS011;29555;45.350;5.578;2023-03-01T05:46:55;26.50;;;17.30;;
43891;SDS011;29555;45.350;5.578;2023-03-01T05:49:21;32.25;;;19.35;;
43891;SDS011;29555;45.350;5.578;2023-03-01T05:51:51;25.25;;;16.23;;
43891;SDS011;29555;45.350;5.578;2023-03-01T05:54:18;29.88;;;17.60;;
43891;SDS011;29555;45.350;5.578;2023-03-01T05:56:44;26.80;;;17.85;;
43891;SDS011;29555;45.350;5.578;2023-03-01T05:59:10;24.98;;;17.50;;
43891;SDS011;29555;45.350;5.578;2023-03-01T06:01:36;30.00;;;17.52;;
43891;SDS011;29555;45.350;5.578;2023-03-01T06:04:02;30.58;;;17.98;;
43891;SDS011;29555;45.350;5.578;2023-03-01T06:06:29;36.65;;;17.48;;
43891;SDS011;29555;45.350;5.578;2023-03-01T06:08:54;27.75;;;17.50;;
43891;SDS011;29555;45.350;5.578;2023-03-01T06:11:20;26.30;;;17.33;;
43891;SDS011;29555;45.350;5.578;2023-03-01T06:13:46;27.85;;;18.27;;
43891;SDS011;29555;45.350;5.578;2023-03-01T06:16:12;23.40;;;16.92;;
43891;SDS011;29555;45.350;5.578;2023-03-01T06:18:38;30.33;;;17.30;;
43891;SDS011;29555;45.350;5.578;2023-03-01T06:21:05;28.30;;;17.88;;
43891;SDS011;29555;45.350;5.578;2023-03-01T06:23:31;30.95;;;18.58;;
43891;SDS011;29555;45.350;5.578;2023-03-01T06:25:57;31.70;;;19.52;;
43891;SDS011;29555;45.350;5.578;2023-03-01T06:28:22;31.77;;;17.95;;
43891;SDS011;29555;45.350;5.578;2023-03-01T06:30:48;30.23;;;19.23;;
43891;SDS011;29555;45.350;5.578;2023-03-01T06:33:14;34.92;;;18.25;;
43891;SDS011;29555;45.350;5.578;2023-03-01T06:35:40;35.00;;;21.25;;
43891;SDS011;29555;45.350;5.578;2023-03-01T06:38:05;110.38;;;40.53;;
43891;SDS011;29555;45.350;5.578;2023-03-01T06:40:31;48.40;;;25.17;;
43891;SDS011;29555;45.350;5.578;2023-03-01T06:43:00;32.53;;;18.85;;
43891;SDS011;29555;45.350;5.578;2023-03-01T06:45:26;36.92;;;19.23;;
43891;SDS011;29555;45.350;5.578;2023-03-01T06:47:51;32.33;;;18.42;;
43891;SDS011;29555;45.350;5.578;2023-03-01T06:50:17;30.85;;;17.70;;
43891;SDS011;29555;45.350;5.578;2023-03-01T06:52:43;36.10;;;20.25;;
43891;SDS011;29555;45.350;5.578;2023-03-01T06:55:10;32.33;;;18.88;;
43891;SDS011;29555;45.350;5.578;2023-03-01T06:57:36;26.50;;;18.13;;
43891;SDS011;29555;45.350;5.578;2023-03-01T07:00:02;40.60;;;20.90;;
43891;SDS011;29555;45.350;5.578;2023-03-01T07:02:29;38.08;;;21.17;;
43891;SDS011;29555;45.350;5.578;2023-03-01T07:04:54;29.95;;;18.92;;
43891;SDS011;29555;45.350;5.578;2023-03-01T07:07:19;37.75;;;22.67;;
43891;SDS011;29555;45.350;5.578;2023-03-01T07:09:45;35.22;;;20.00;;
43891;SDS011;29555;45.350;5.578;2023-03-01T07:12:11;30.08;;;19.08;;
43891;SDS011;29555;45.350;5.578;2023-03-01T07:14:37;34.72;;;19.92;;
43891;SDS011;29555;45.350;5.578;2023-03-01T07:17:02;41.00;;;22.90;;
43891;SDS011;29555;45.350;5.578;2023-03-01T07:19:27;36.88;;;20.90;;
43891;SDS011;29555;45.350;5.578;2023-03-01T07:21:53;35.22;;;21.63;;
43891;SDS011;29555;45.350;5.578;2023-03-01T07:24:18;34.42;;;20.20;;
43891;SDS011;29555;45.350;5.578;2023-03-01T07:26:47;34.60;;;19.17;;
43891;SDS011;29555;45.350;5.578;2023-03-01T07:29:13;34.38;;;19.67;;
43891;SDS011;29555;45.350;5.578;2023-03-01T07:31:38;33.10;;;19.45;;
43891;SDS011;29555;45.350;5.578;2023-03-01T07:34:04;36.20;;;19.42;;
43891;SDS011;29555;45.350;5.578;2023-03-01T07:36:30;37.50;;;20.60;;
43891;SDS011;29555;45.350;5.578;2023-03-01T07:38:55;39.95;;;21.55;;
43891;SDS011;29555;45.350;5.578;2023-03-01T07:41:21;31.63;;;19.65;;
43891;SDS011;29555;45.350;5.578;2023-03-01T07:43:47;31.45;;;20.60;;
43891;SDS011;29555;45.350;5.578;2023-03-01T07:46:12;35.30;;;20.02;;
43891;SDS011;29555;45.350;5.578;2023-03-01T07:48:37;31.85;;;17.58;;
43891;SDS011;29555;45.350;5.578;2023-03-01T07:51:04;36.78;;;21.85;;
43891;SDS011;29555;45.350;5.578;2023-03-01T07:53:30;35.50;;;20.88;;
43891;SDS011;29555;45.350;5.578;2023-03-01T07:56:09;33.47;;;20.02;;
43891;SDS011;29555;45.350;5.578;2023-03-01T07:58:37;32.50;;;19.27;;
43891;SDS011;29555;45.350;5.578;2023-03-01T08:01:05;34.65;;;21.20;;
43891;SDS011;29555;45.350;5.578;2023-03-01T08:03:32;44.13;;;22.60;;
43891;SDS011;29555;45.350;5.578;2023-03-01T08:06:01;35.10;;;22.75;;
43891;SDS011;29555;45.350;5.578;2023-03-01T08:08:28;33.78;;;21.40;;
43891;SDS011;29555;45.350;5.578;2023-03-01T08:10:57;38.22;;;19.58;;
43891;SDS011;29555;45.350;5.578;2023-03-01T08:13:23;34.45;;;20.77;;
43891;SDS011;29555;45.350;5.578;2023-03-01T08:15:49;29.98;;;18.05;;
43891;SDS011;29555;45.350;5.578;2023-03-01T08:18:15;39.35;;;21.77;;
43891;SDS011;29555;45.350;5.578;2023-03-01T08:20:41;34.88;;;20.05;;
43891;SDS011;29555;45.350;5.578;2023-03-01T08:23:07;34.08;;;19.15;;
43891;SDS011;29555;45.350;5.578;2023-03-01T08:25:32;36.63;;;21.77;;
43891;SDS011;29555;45.350;5.578;2023-03-01T08:27:58;36.60;;;19.67;;
43891;SDS011;29555;45.350;5.578;2023-03-01T08:30:23;40.20;;;22.73;;
43891;SDS011;29555;45.350;5.578;2023-03-01T08:32:49;46.42;;;24.42;;
43891;SDS011;29555;45.350;5.578;2023-03-01T08:35:15;39.88;;;23.13;;
43891;SDS011;29555;45.350;5.578;2023-03-01T08:37:40;40.55;;;22.05;;
43891;SDS011;29555;45.350;5.578;2023-03-01T08:40:06;39.58;;;20.33;;
43891;SDS011;29555;45.350;5.578;2023-03-01T08:42:34;36.78;;;21.60;;
43891;SDS011;29555;45.350;5.578;2023-03-01T08:45:01;30.25;;;19.77;;
43891;SDS011;29555;45.350;5.578;2023-03-01T08:47:26;34.65;;;18.52;;
43891;SDS011;29555;45.350;5.578;2023-03-01T08:49:51;37.22;;;20.95;;
43891;SDS011;29555;45.350;5.578;2023-03-01T08:52:17;38.00;;;20.23;;
43891;SDS011;29555;45.350;5.578;2023-03-01T08:54:44;35.35;;;19.85;;
43891;SDS011;29555;45.350;5.578;2023-03-01T08:57:09;31.25;;;20.45;;
43891;SDS011;29555;45.350;5.578;2023-03-01T08:59:34;38.35;;;20.73;;
43891;SDS011;29555;45.350;5.578;2023-03-01T09:02:02;35.42;;;20.77;;
43891;SDS011;29555;45.350;5.578;2023-03-01T09:04:29;34.70;;;19.60;;
43891;SDS011;29555;45.350;5.578;2023-03-01T09:06:54;37.92;;;23.58;;
43891;SDS011;29555;45.350;5.578;2023-03-01T09:09:20;46.33;;;24.88;;
43891;SDS011;29555;45.350;5.578;2023-03-01T09:11:45;43.88;;;25.40;;
43891;SDS011;29555;45.350;5.578;2023-03-01T09:14:11;48.42;;;24.48;;
43891;SDS011;29555;45.350;5.578;2023-03-01T09:16:37;36.47;;;21.55;;
43891;SDS011;29555;45.350;5.578;2023-03-01T09:19:03;43.85;;;25.38;;
43891;SDS011;29555;45.350;5.578;2023-03-01T09:21:29;43.88;;;24.75;;
43891;SDS011;29555;45.350;5.578;2023-03-01T09:23:55;30.60;;;20.60;;
43891;SDS011;29555;45.350;5.578;2023-03-01T09:26:22;35.97;;;21.67;;
43891;SDS011;29555;45.350;5.578;2023-03-01T09:28:48;34.30;;;20.80;;
43891;SDS011;29555;45.350;5.578;2023-03-01T09:31:16;37.13;;;21.13;;
43891;SDS011;29555;45.350;5.578;2023-03-01T09:33:44;37.45;;;20.45;;
43891;SDS011;29555;45.350;5.578;2023-03-01T09:36:14;38.42;;;21.98;;
43891;SDS011;29555;45.350;5.578;2023-03-01T09:38:42;39.38;;;21.27;;
43891;SDS011;29555;45.350;5.578;2023-03-01T09:41:17;38.15;;;22.52;;
43891;SDS011;29555;45.350;5.578;2023-03-01T09:44:04;39.35;;;21.85;;
43891;SDS011;29555;45.350;5.578;2023-03-01T09:46:36;34.10;;;21.80;;
43891;SDS011;29555;45.350;5.578;2023-03-01T09:49:10;41.53;;;21.73;;
43891;SDS011;29555;45.350;5.578;2023-03-01T09:51:42;44.45;;;20.98;;
43891;SDS011;29555;45.350;5.578;2023-03-01T09:54:18;36.65;;;21.65;;
43891;SDS011;29555;45.350;5.578;2023-03-01T09:56:45;39.47;;;21.65;;
43891;SDS011;29555;45.350;5.578;2023-03-01T09:59:30;44.13;;;20.10;;
43891;SDS011;29555;45.350;5.578;2023-03-01T10:04:52;36.90;;;21.23;;
43891;SDS011;29555;45.350;5.578;2023-03-01T10:09:58;35.28;;;21.13;;
43891;SDS011;29555;45.350;5.578;2023-03-01T10:12:26;39.30;;;22.08;;
43891;SDS011;29555;45.350;5.578;2023-03-01T10:14:57;41.65;;;21.95;;
43891;SDS011;29555;45.350;5.578;2023-03-01T10:20:10;36.63;;;21.38;;
43891;SDS011;29555;45.350;5.578;2023-03-01T10:22:41;41.70;;;21.25;;
43891;SDS011;29555;45.350;5.578;2023-03-01T10:25:08;44.47;;;23.40;;
43891;SDS011;29555;45.350;5.578;2023-03-01T10:27:45;40.63;;;23.10;;
43891;SDS011;29555;45.350;5.578;2023-03-01T10:30:40;33.65;;;21.50;;
43891;SDS011;29555;45.350;5.578;2023-03-01T10:33:24;38.10;;;22.38;;
43891;SDS011;29555;45.350;5.578;2023-03-01T10:36:02;33.17;;;20.75;;
43891;SDS011;29555;45.350;5.578;2023-03-01T10:38:27;39.60;;;21.45;;
43891;SDS011;29555;45.350;5.578;2023-03-01T10:40:57;37.92;;;21.25;;
43891;SDS011;29555;45.350;5.578;2023-03-01T10:43:27;40.03;;;21.70;;
43891;SDS011;29555;45.350;5.578;2023-03-01T10:45:57;33.22;;;22.63;;
43891;SDS011;29555;45.350;5.578;2023-03-01T10:48:23;42.42;;;22.77;;
43891;SDS011;29555;45.350;5.578;2023-03-01T10:51:14;39.10;;;21.85;;
43891;SDS011;29555;45.350;5.578;2023-03-01T10:53:42;33.03;;;20.30;;
43891;SDS011;29555;45.350;5.578;2023-03-01T10:56:13;36.53;;;22.60;;
43891;SDS011;29555;45.350;5.578;2023-03-01T10:58:41;43.28;;;22.67;;
43891;SDS011;29555;45.350;5.578;2023-03-01T11:03:54;42.75;;;22.73;;
43891;SDS011;29555;45.350;5.578;2023-03-01T11:06:30;38.35;;;21.75;;
43891;SDS011;29555;45.350;5.578;2023-03-01T11:08:56;37.50;;;23.88;;
43891;SDS011;29555;45.350;5.578;2023-03-01T11:14:15;45.13;;;22.95;;
43891;SDS011;29555;45.350;5.578;2023-03-01T11:16:44;33.10;;;20.80;;
43891;SDS011;29555;45.350;5.578;2023-03-01T11:24:38;28.98;;;18.02;;
43891;SDS011;29555;45.350;5.578;2023-03-01T11:27:07;32.00;;;18.95;;
43891;SDS011;29555;45.350;5.578;2023-03-01T11:29:56;27.92;;;20.20;;
43891;SDS011;29555;45.350;5.578;2023-03-01T11:32:26;37.65;;;22.13;;
43891;SDS011;29555;45.350;5.578;2023-03-01T11:35:03;34.17;;;22.35;;
43891;SDS011;29555;45.350;5.578;2023-03-01T11:37:44;34.53;;;21.35;;
43891;SDS011;29555;45.350;5.578;2023-03-01T11:40:40;35.20;;;20.80;;
43891;SDS011;29555;45.350;5.578;2023-03-01T11:43:47;35.53;;;20.63;;
43891;SDS011;29555;45.350;5.578;2023-03-01T11:56:46;35.45;;;21.02;;
